»·PEaware :: N626MT KSAN-KEMT

N626MT :: KSAN-KEMT

FLIGHT INFORMATION

Flight Status: Arrived
Operator: Privately registered:
United States
More flights under this callsign
Pilot: Dave M. (4986)
Aircraft: SOCATA TBM-900
(TBM9)
More flights by this aircraft type
Origin: KSAN San Diego Intl-Lindbergh
United States
Destination: KEMT El Monte
United States
More flights between these airports :: More routes between these airports
Route: +PEBLE6 POM164 POM
File this flight plan on PilotEdge
Remarks: TEC ROUTE SANP24
Altitude:
(Current/Filed)
8,000ft
Speed:
(Current/Filed)
250kts
Departed: 05-Feb-20 09:13 PM
Arrived: 05-Feb-20 09:46 PM
Distance/Time
Traveled:
91nm/0:32
Distance/Time
To Go:
Arrived

Flight Plot

Page will automatically refresh every two minutes.

Flight plan parsing failed; only flown route is shown


Map Options




Map Legend


Flown Route
Filed Route
Departure Airport
Arrival Airport
Navaid (VOR, NDB)
Fix

Horizontal Profiles

Position Reports

Time Latitude Longitude Heading Altitude Ground
Speed
05-Feb-20 20:50 32.732018 -117.176219 194 27ft 0kts
05-Feb-20 20:51 32.732018 -117.176219 194 27ft 0kts
05-Feb-20 20:52 32.732018 -117.176219 194 27ft 0kts
05-Feb-20 20:53 32.732018 -117.176219 194 27ft 0kts
05-Feb-20 20:54 32.732018 -117.176219 194 27ft 0kts
05-Feb-20 20:55 32.732018 -117.176219 194 27ft 0kts
05-Feb-20 20:56 32.732017 -117.176219 194 27ft 0kts
05-Feb-20 20:57 32.732017 -117.176219 194 27ft 0kts
05-Feb-20 20:58 32.732017 -117.176219 194 27ft 0kts
05-Feb-20 20:59 32.732017 -117.176219 194 27ft 0kts
05-Feb-20 21:00 32.732017 -117.176219 194 27ft 0kts
05-Feb-20 21:01 32.732017 -117.176219 194 27ft 0kts
05-Feb-20 21:02 32.732017 -117.176219 194 27ft 0kts
05-Feb-20 21:03 32.732017 -117.176219 194 27ft 0kts
05-Feb-20 21:04 32.732018 -117.176219 194 27ft 0kts
05-Feb-20 21:05 32.732018 -117.176219 194 27ft 0kts
05-Feb-20 21:06 32.732018 -117.176219 194 27ft 0kts
05-Feb-20 21:07 32.732018 -117.176219 194 27ft 0kts
05-Feb-20 21:08 32.731916 -117.176249 194 26ft 0kts
05-Feb-20 21:09 32.731368 -117.176398 166 23ft 2kts
05-Feb-20 21:10 32.731114 -117.175634 106 25ft 2kts
05-Feb-20 21:11 32.730228 -117.175897 285 22ft 11kts
05-Feb-20 21:12 32.735995 -117.199985 285 727ft 126kts
05-Feb-20 21:13 32.751825 -117.235127 301 2769ft 140kts
05-Feb-20 21:14 32.771418 -117.279114 301 4805ft 158kts
05-Feb-20 21:15 32.792099 -117.327509 301 6828ft 166kts
05-Feb-20 21:16 32.813683 -117.379748 301 8020ft 204kts
05-Feb-20 21:17 32.842848 -117.447287 301 7995ft 243kts
05-Feb-20 21:18 32.883088 -117.509397 341 8008ft 238kts
05-Feb-20 21:19 32.942967 -117.546239 331 7986ft 244kts
05-Feb-20 21:20 33.001206 -117.589618 331 7988ft 245kts
05-Feb-20 21:21 33.054615 -117.640252 309 8001ft 252kts
05-Feb-20 21:22 33.096331 -117.708618 309 7988ft 253kts
05-Feb-20 21:23 33.142697 -117.768576 353 7970ft 243kts
05-Feb-20 21:24 33.209854 -117.772639 359 7992ft 243kts
05-Feb-20 21:25 33.277613 -117.774851 359 7991ft 244kts
05-Feb-20 21:26 33.345598 -117.776328 359 7988ft 244kts
05-Feb-20 21:27 33.408835 -117.777405 359 7985ft 244kts
05-Feb-20 21:28 33.477073 -117.778437 359 7983ft 244kts
05-Feb-20 21:29 33.545119 -117.779420 359 7982ft 244kts
05-Feb-20 21:30 33.610078 -117.780377 359 7112ft 222kts
05-Feb-20 21:31 33.671144 -117.781228 359 5920ft 219kts
05-Feb-20 21:32 33.731939 -117.782099 359 4972ft 209kts
05-Feb-20 21:33 33.784791 -117.782976 359 5079ft 167kts
05-Feb-20 21:34 33.828956 -117.783496 359 4968ft 149kts
05-Feb-20 21:35 33.869527 -117.783903 359 4975ft 144kts
05-Feb-20 21:36 33.910976 -117.784291 359 4978ft 152kts
05-Feb-20 21:37 33.953697 -117.784613 359 4974ft 154kts
05-Feb-20 21:38 33.993135 -117.799764 312 4648ft 172kts
05-Feb-20 21:39 34.022878 -117.845919 299 3639ft 168kts
05-Feb-20 21:40 34.044687 -117.894108 299 2748ft 156kts
05-Feb-20 21:41 34.070066 -117.933604 311 1749ft 138kts
05-Feb-20 21:42 34.092280 -117.967513 307 878ft 120kts
05-Feb-20 21:43 34.104875 -117.996554 287 821ft 93kts
05-Feb-20 21:44 34.102896 -118.024556 216 577ft 91kts
05-Feb-20 21:45 34.084023 -118.035983 206 293ft 30kts
05-Feb-20 21:46 34.083046 -118.036056 107 293ft 0kts
05-Feb-20 21:47 34.083318 -118.035745 25 293ft 2kts
05-Feb-20 21:48 34.084219 -118.035231 25 293ft 5kts
05-Feb-20 21:49 34.085868 -118.034230 64 293ft 7kts
05-Feb-20 21:50 34.085301 -118.033054 206 293ft 0kts

Navigation Log

Ident Type
Flight plan parsing failed, navigation log unavailable